createdAt,value
2018-08-18T00:00:01.028Z,9.73
2018-08-18T00:02:29.244Z,9.10
2018-08-18T00:04:57.429Z,9.03
2018-08-18T00:07:25.593Z,9.67
2018-08-18T00:09:53.794Z,9.53
2018-08-18T00:12:27.340Z,9.47
2018-08-18T00:14:55.560Z,10.40
2018-08-18T00:17:23.780Z,11.10
2018-08-18T00:19:53.135Z,8.70
2018-08-18T00:22:21.333Z,10.30
2018-08-18T00:24:54.859Z,10.20
2018-08-18T00:27:23.219Z,8.97
2018-08-18T00:29:51.399Z,9.80
2018-08-18T00:32:19.576Z,8.10
2018-08-18T00:34:52.221Z,9.63
2018-08-18T00:37:20.527Z,10.37
2018-08-18T00:39:48.680Z,8.67
2018-08-18T00:42:16.863Z,9.50
2018-08-18T00:44:45.052Z,8.20
2018-08-18T00:47:13.260Z,9.60
2018-08-18T00:49:41.419Z,8.27
2018-08-18T00:52:09.605Z,7.83
2018-08-18T00:54:37.771Z,8.23
2018-08-18T00:57:20.224Z,9.60
2018-08-18T00:59:48.370Z,7.43
2018-08-18T01:02:16.520Z,9.40
2018-08-18T01:04:57.370Z,9.17
2018-08-18T01:07:26.510Z,7.17
2018-08-18T01:09:54.684Z,7.50
2018-08-18T01:12:23.525Z,7.50
2018-08-18T01:14:51.773Z,7.27
2018-08-18T01:17:19.833Z,8.07
2018-08-18T01:19:47.974Z,8.13
2018-08-18T01:22:16.115Z,7.43
2018-08-18T01:24:44.307Z,6.17
2018-08-18T01:27:12.589Z,7.13
2018-08-18T01:29:40.661Z,6.87
2018-08-18T01:32:08.860Z,6.70
2018-08-18T01:34:37.012Z,6.50
2018-08-18T01:37:10.580Z,7.90
2018-08-18T01:39:38.716Z,7.77
2018-08-18T01:42:06.959Z,5.77
2018-08-18T01:44:35.120Z,6.90
2018-08-18T01:47:07.532Z,7.20
2018-08-18T01:49:37.332Z,6.53
2018-08-18T01:52:13.608Z,5.80
2018-08-18T01:54:42.123Z,5.97
2018-08-18T01:57:10.749Z,5.67
2018-08-18T01:59:40.008Z,5.87
2018-08-18T02:02:15.774Z,6.43
2018-08-18T02:04:44.495Z,5.67
2018-08-18T02:07:32.272Z,5.53
2018-08-18T02:10:00.456Z,5.03
2018-08-18T02:12:28.956Z,6.37
2018-08-18T02:14:57.482Z,7.37
2018-08-18T02:17:33.524Z,6.07
2018-08-18T02:20:01.842Z,7.63
2018-08-18T02:22:30.702Z,7.80
2018-08-18T02:24:59.200Z,7.03
2018-08-18T02:27:27.588Z,7.30
2018-08-18T02:30:07.240Z,6.63
2018-08-18T02:32:37.314Z,7.97
2018-08-18T02:35:05.804Z,8.33
2018-08-18T02:37:34.155Z,7.80
2018-08-18T02:40:02.364Z,6.67
2018-08-18T02:42:30.500Z,6.80
2018-08-18T02:44:58.975Z,6.53
2018-08-18T02:47:27.205Z,7.30
2018-08-18T02:49:55.872Z,5.77
2018-08-18T02:52:26.138Z,5.80
2018-08-18T02:54:56.034Z,6.90
2018-08-18T02:57:28.400Z,6.70
2018-08-18T02:59:58.909Z,7.43
2018-08-18T03:02:27.093Z,5.93
2018-08-18T03:04:55.376Z,6.57
2018-08-18T03:07:23.779Z,6.03
2018-08-18T03:09:52.050Z,6.17
2018-08-18T03:12:20.228Z,6.60
2018-08-18T03:14:48.420Z,8.03
2018-08-18T03:17:16.696Z,5.97
2018-08-18T03:19:45.831Z,6.50
2018-08-18T03:22:14.020Z,6.77
2018-08-18T03:24:42.191Z,6.60
2018-08-18T03:27:10.354Z,6.23
2018-08-18T03:29:47.649Z,6.10
2018-08-18T03:32:15.800Z,6.30
2018-08-18T03:34:43.964Z,5.63
2018-08-18T03:37:32.167Z,5.90
2018-08-18T03:40:00.361Z,5.83
2018-08-18T03:42:35.674Z,7.33
2018-08-18T03:45:05.859Z,6.05
2018-08-18T03:47:34.040Z,5.80
2018-08-18T03:50:02.239Z,6.30
2018-08-18T03:52:30.509Z,5.60
2018-08-18T03:54:59.056Z,5.03
2018-08-18T03:57:48.365Z,6.53
2018-08-18T04:00:17.630Z,5.73
2018-08-18T04:02:45.872Z,7.90
2018-08-18T04:05:14.052Z,6.00
2018-08-18T04:07:47.892Z,7.00
2018-08-18T04:10:17.825Z,5.90
2018-08-18T04:12:45.981Z,5.30
2018-08-18T04:15:14.128Z,7.40
2018-08-18T04:17:42.300Z,5.47
2018-08-18T04:20:10.484Z,6.27
2018-08-18T04:22:38.649Z,6.60
2018-08-18T04:25:06.900Z,6.73
2018-08-18T04:27:44.240Z,6.40
2018-08-18T04:30:15.172Z,7.67
2018-08-18T04:32:59.567Z,6.73
2018-08-18T04:35:28.791Z,7.97
2018-08-18T04:37:57.863Z,7.33
2018-08-18T04:40:26.519Z,7.03
2018-08-18T04:42:57.310Z,6.27
2018-08-18T04:45:25.512Z,7.50
2018-08-18T04:47:53.684Z,6.97
2018-08-18T04:50:22.251Z,8.03
2018-08-18T04:52:53.112Z,7.10
2018-08-18T04:55:21.333Z,6.83
2018-08-18T04:57:49.603Z,7.27
2018-08-18T05:00:17.772Z,8.13
2018-08-18T05:02:51.380Z,6.63
2018-08-18T05:05:26.520Z,7.73
2018-08-18T05:07:54.716Z,7.13
2018-08-18T05:10:22.914Z,7.27
2018-08-18T05:12:51.104Z,7.50
2018-08-18T05:15:19.727Z,8.83
2018-08-18T05:17:49.216Z,7.67
2018-08-18T05:20:20.909Z,6.17
2018-08-18T05:22:49.176Z,7.83
2018-08-18T05:25:18.483Z,6.87
2018-08-18T05:27:46.642Z,7.53
2018-08-18T05:30:14.840Z,8.60
2018-08-18T05:32:43.125Z,5.30
2018-08-18T05:35:11.363Z,7.50
2018-08-18T05:37:39.564Z,7.80
2018-08-18T05:40:07.815Z,8.70
2018-08-18T05:42:36.021Z,7.70
2018-08-18T05:45:20.887Z,7.53
2018-08-18T05:47:49.143Z,7.10
2018-08-18T05:50:17.280Z,8.40
2018-08-18T05:52:45.455Z,7.43
2018-08-18T05:55:13.635Z,7.70
2018-08-18T05:57:41.801Z,10.37
2018-08-18T06:00:15.382Z,7.80
2018-08-18T06:02:48.115Z,6.93
2018-08-18T06:05:16.300Z,8.10
2018-08-18T06:07:44.460Z,7.33
2018-08-18T06:10:12.629Z,6.83
2018-08-18T06:12:40.819Z,6.77
2018-08-18T06:15:09.329Z,7.87
2018-08-18T06:17:37.492Z,7.50
2018-08-18T06:20:07.328Z,8.40
2018-08-18T06:22:35.820Z,8.70
2018-08-18T06:25:04.263Z,7.87
2018-08-18T06:27:32.405Z,9.70
2018-08-18T06:30:00.589Z,8.07
2018-08-18T06:32:28.783Z,7.97
2018-08-18T06:34:57.090Z,8.00
2018-08-18T06:37:25.182Z,7.30
2018-08-18T06:39:57.126Z,7.07
2018-08-18T06:42:36.260Z,6.60
2018-08-18T06:45:11.028Z,9.90
2018-08-18T06:47:39.649Z,6.77
2018-08-18T06:50:09.619Z,7.70
2018-08-18T06:52:37.819Z,11.37
2018-08-18T06:55:06.683Z,6.60
2018-08-18T06:57:42.032Z,6.80
2018-08-18T07:00:12.285Z,7.23
2018-08-18T07:02:40.591Z,7.50
2018-08-18T07:05:11.004Z,7.10
2018-08-18T07:07:39.216Z,7.00
2018-08-18T07:10:22.244Z,6.47
2018-08-18T07:12:52.155Z,7.10
2018-08-18T07:15:23.017Z,6.27
2018-08-18T07:17:51.690Z,5.77
2018-08-18T07:20:20.560Z,7.93
2018-08-18T07:22:49.073Z,7.30
2018-08-18T07:25:17.957Z,7.23
2018-08-18T07:27:46.164Z,5.83
2018-08-18T07:30:14.695Z,5.67
2018-08-18T07:32:42.883Z,5.50
2018-08-18T07:35:11.079Z,5.27
2018-08-18T07:37:39.351Z,5.17
2018-08-18T07:40:08.220Z,5.80
2018-08-18T07:42:36.387Z,5.57
2018-08-18T07:45:04.645Z,4.27
2018-08-18T07:47:34.642Z,4.57
2018-08-18T07:50:05.008Z,4.00
2018-08-18T07:52:33.489Z,4.53
2018-08-18T07:55:01.756Z,4.77
2018-08-18T07:57:29.999Z,4.07
2018-08-18T08:00:00.570Z,4.20
2018-08-18T08:02:29.508Z,3.00
2018-08-18T08:04:58.688Z,14.50
2018-08-18T08:07:27.079Z,3.13
2018-08-18T08:09:56.776Z,4.50
2018-08-18T08:12:25.124Z,4.07
2018-08-18T08:14:53.204Z,3.63
2018-08-18T08:17:21.453Z,4.33
2018-08-18T08:19:49.625Z,3.80
2018-08-18T08:22:17.866Z,3.33
2018-08-18T08:24:46.009Z,4.00
2018-08-18T08:27:14.200Z,3.60
2018-08-18T08:29:42.421Z,6.60
2018-08-18T08:32:10.788Z,2.90
2018-08-18T08:34:46.793Z,3.23
2018-08-18T08:37:16.093Z,3.13
2018-08-18T08:39:44.981Z,3.30
2018-08-18T08:42:14.168Z,5.07
2018-08-18T08:44:43.152Z,3.90
2018-08-18T08:47:13.251Z,4.00
2018-08-18T08:49:41.518Z,4.60
2018-08-18T08:52:09.769Z,3.93
2018-08-18T08:54:39.665Z,4.03
2018-08-18T08:57:09.118Z,3.00
2018-08-18T08:59:38.417Z,3.10
2018-08-18T09:02:11.059Z,3.13
2018-08-18T09:04:39.253Z,2.53
2018-08-18T09:07:08.787Z,3.90
2018-08-18T09:09:37.117Z,3.83
2018-08-18T09:12:05.483Z,3.27
2018-08-18T09:14:33.732Z,3.50
2018-08-18T09:17:01.999Z,5.17
2018-08-18T09:19:30.249Z,4.20
2018-08-18T09:22:01.447Z,4.90
2018-08-18T09:24:30.699Z,4.73
2018-08-18T09:27:01.079Z,4.77
2018-08-18T09:29:34.542Z,5.80
2018-08-18T09:32:02.821Z,4.97
2018-08-18T09:34:31.903Z,5.57
2018-08-18T09:37:00.064Z,6.27
2018-08-18T09:39:33.262Z,5.53
2018-08-18T09:42:02.751Z,6.83
2018-08-18T09:44:32.629Z,7.77
2018-08-18T09:47:00.824Z,5.93
2018-08-18T09:49:30.179Z,7.20
2018-08-18T09:51:58.673Z,7.53
2018-08-18T09:54:27.230Z,5.97
2018-08-18T09:56:55.651Z,7.10
2018-08-18T09:59:23.875Z,7.23
2018-08-18T10:01:52.209Z,6.03
2018-08-18T10:04:20.408Z,6.43
2018-08-18T10:06:48.664Z,6.20
2018-08-18T10:09:16.833Z,6.40
2018-08-18T10:11:45.008Z,5.50
2018-08-18T10:14:13.224Z,5.60
2018-08-18T10:16:41.404Z,6.20
2018-08-18T10:19:09.541Z,6.70
2018-08-18T10:21:37.907Z,4.70
2018-08-18T10:24:06.172Z,6.30
2018-08-18T10:26:34.440Z,6.17
2018-08-18T10:29:20.400Z,5.00
2018-08-18T10:31:49.616Z,4.30
2018-08-18T10:34:19.956Z,4.63
2018-08-18T10:36:50.861Z,4.07
2018-08-18T10:39:19.391Z,4.13
2018-08-18T10:41:58.944Z,3.73
2018-08-18T10:44:27.269Z,3.70
2018-08-18T10:47:09.421Z,4.23
2018-08-18T10:49:48.936Z,3.37
2018-08-18T10:52:29.469Z,5.43
2018-08-18T10:54:58.420Z,4.60
2018-08-18T10:57:37.882Z,3.40
2018-08-18T11:00:07.915Z,3.90
2018-08-18T11:02:36.599Z,2.87
2018-08-18T11:05:05.433Z,3.10
2018-08-18T11:07:33.601Z,4.30
2018-08-18T11:10:01.899Z,8.37
2018-08-18T11:12:33.338Z,3.97
2018-08-18T11:15:02.250Z,2.60
2018-08-18T11:17:31.588Z,3.10
2018-08-18T11:20:03.101Z,3.70
2018-08-18T11:22:48.776Z,3.20
2018-08-18T11:25:17.320Z,2.90
2018-08-18T11:27:45.559Z,2.50
2018-08-18T11:30:13.872Z,2.27
2018-08-18T11:32:42.180Z,3.17
2018-08-18T11:35:10.417Z,3.22
2018-08-18T11:37:52.394Z,2.30
2018-08-18T11:40:21.092Z,3.10
2018-08-18T11:42:49.848Z,2.33
2018-08-18T11:45:19.327Z,3.23
2018-08-18T11:47:57.904Z,3.10
2018-08-18T11:50:27.195Z,3.30
2018-08-18T11:52:55.739Z,3.97
2018-08-18T11:55:24.131Z,5.43
2018-08-18T11:57:53.231Z,4.50
2018-08-18T12:00:21.426Z,4.10
2018-08-18T12:02:50.904Z,4.20
2018-08-18T12:05:19.188Z,3.40
2018-08-18T12:07:49.200Z,3.83
2018-08-18T12:10:17.760Z,3.00
2018-08-18T12:12:45.935Z,3.20
2018-08-18T12:15:14.280Z,3.40
2018-08-18T12:17:54.572Z,3.20
2018-08-18T12:20:23.254Z,4.70
2018-08-18T12:22:52.559Z,4.17
2018-08-18T12:25:20.860Z,4.17
2018-08-18T12:27:49.059Z,4.77
2018-08-18T12:30:28.696Z,4.97
2018-08-18T12:32:56.891Z,4.50
2018-08-18T12:35:32.084Z,4.80
2018-08-18T12:38:00.554Z,3.43
2018-08-18T12:40:29.093Z,4.50
2018-08-18T12:42:57.293Z,3.90
2018-08-18T12:45:25.461Z,4.00
2018-08-18T12:48:02.212Z,3.60
2018-08-18T12:50:31.048Z,2.80
2018-08-18T12:52:59.905Z,2.97
2018-08-18T12:55:28.175Z,2.60
2018-08-18T12:57:56.428Z,3.10
2018-08-18T13:00:24.674Z,2.53
2018-08-18T13:02:54.640Z,3.03
2018-08-18T13:05:24.412Z,3.70
2018-08-18T13:07:53.875Z,2.97
2018-08-18T13:10:30.343Z,3.60
2018-08-18T13:12:58.617Z,3.70
2018-08-18T13:15:26.892Z,3.77
2018-08-18T13:17:55.135Z,3.80
2018-08-18T13:20:24.804Z,4.50
2018-08-18T13:22:53.089Z,3.60
2018-08-18T13:25:21.288Z,3.73
2018-08-18T13:27:53.084Z,3.40
2018-08-18T13:30:22.038Z,3.67
2018-08-18T13:32:54.096Z,4.03
2018-08-18T13:35:22.396Z,3.73
2018-08-18T13:37:50.638Z,3.03
2018-08-18T13:40:19.026Z,3.77
2018-08-18T13:42:47.195Z,2.70
2018-08-18T13:45:15.509Z,3.43
2018-08-18T13:47:43.872Z,3.80
2018-08-18T13:50:13.569Z,3.23
2018-08-18T13:52:47.224Z,2.70
2018-08-18T13:55:15.441Z,4.77
2018-08-18T13:57:43.723Z,3.50
2018-08-18T14:00:17.103Z,3.87
2018-08-18T14:02:45.844Z,3.77
2018-08-18T14:05:21.396Z,3.67
2018-08-18T14:07:56.439Z,2.70
2018-08-18T14:10:24.756Z,4.40
2018-08-18T14:12:53.911Z,2.37
2018-08-18T14:15:22.168Z,3.67
2018-08-18T14:17:56.865Z,2.70
2018-08-18T14:20:25.289Z,4.10
2018-08-18T14:22:58.049Z,3.27
2018-08-18T14:25:26.595Z,3.13
2018-08-18T14:28:01.273Z,3.00
2018-08-18T14:30:30.560Z,3.40
2018-08-18T14:32:58.752Z,3.50
2018-08-18T14:35:26.950Z,3.37
2018-08-18T14:37:55.116Z,3.73
2018-08-18T14:40:23.312Z,3.60
2018-08-18T14:42:51.961Z,3.30
2018-08-18T14:45:21.479Z,2.97
2018-08-18T14:47:50.505Z,3.00
2018-08-18T14:50:21.869Z,2.50
2018-08-18T14:52:50.121Z,2.80
2018-08-18T14:55:18.336Z,3.40
2018-08-18T14:58:02.239Z,2.77
2018-08-18T15:00:30.846Z,3.20
2018-08-18T15:02:59.048Z,2.17
2018-08-18T15:05:27.240Z,2.80
2018-08-18T15:07:56.498Z,3.07
2018-08-18T15:10:33.219Z,2.40
2018-08-18T15:13:01.953Z,2.80
2018-08-18T15:15:30.930Z,2.67
2018-08-18T15:18:02.388Z,2.40
2018-08-18T15:20:32.519Z,3.47
2018-08-18T15:23:01.315Z,3.40
2018-08-18T15:25:30.360Z,2.97
2018-08-18T15:28:00.179Z,2.90
2018-08-18T15:30:28.420Z,2.40
2018-08-18T15:32:56.606Z,2.47
2018-08-18T15:35:25.816Z,2.13
2018-08-18T15:37:53.988Z,2.73
2018-08-18T15:40:22.420Z,2.73
2018-08-18T15:42:50.663Z,3.00
2018-08-18T15:45:18.856Z,2.70
2018-08-18T15:47:47.042Z,2.50
2018-08-18T15:50:15.217Z,3.93
2018-08-18T15:52:43.505Z,3.90
2018-08-18T15:55:11.765Z,3.50
2018-08-18T15:57:39.937Z,3.07
2018-08-18T16:00:45.432Z,2.57
2018-08-18T16:03:13.648Z,2.03
2018-08-18T16:05:41.788Z,3.47
2018-08-18T16:08:10.064Z,3.23
2018-08-18T16:10:38.292Z,3.10
2018-08-18T16:13:06.464Z,2.90
2018-08-18T16:15:34.684Z,2.60
2018-08-18T16:18:02.865Z,1.87
2018-08-18T16:20:32.487Z,2.27
2018-08-18T16:23:00.720Z,2.30
2018-08-18T16:25:37.692Z,2.73
2018-08-18T16:28:06.484Z,2.30
2018-08-18T16:30:35.104Z,2.67
2018-08-18T16:33:18.663Z,2.53
2018-08-18T16:35:47.055Z,2.07
2018-08-18T16:38:15.248Z,1.90
2018-08-18T16:40:43.450Z,2.00
2018-08-18T16:43:12.960Z,2.62
2018-08-18T16:45:41.176Z,1.67
2018-08-18T16:48:10.553Z,2.00
2018-08-18T16:50:39.653Z,1.73
2018-08-18T16:53:09.156Z,1.60
2018-08-18T16:55:38.667Z,2.10
2018-08-18T16:58:06.928Z,1.77
2018-08-18T17:00:49.473Z,2.17
2018-08-18T17:03:21.915Z,2.33
2018-08-18T17:05:50.073Z,1.57
2018-08-18T17:08:18.231Z,2.03
2018-08-18T17:10:46.428Z,1.40
2018-08-18T17:13:14.620Z,1.93
2018-08-18T17:15:42.848Z,1.40
2018-08-18T17:18:11.077Z,2.03
2018-08-18T17:20:40.144Z,1.43
2018-08-18T17:23:08.359Z,1.93
2018-08-18T17:25:40.798Z,2.10
2018-08-18T17:28:08.953Z,1.90
2018-08-18T17:30:37.147Z,1.40
2018-08-18T17:33:05.532Z,2.17
2018-08-18T17:35:33.735Z,1.63
2018-08-18T17:38:01.914Z,1.87
2018-08-18T17:40:30.266Z,1.37
2018-08-18T17:42:58.436Z,1.50
2018-08-18T17:45:26.719Z,1.50
2018-08-18T17:47:54.907Z,2.33
2018-08-18T17:50:23.401Z,1.50
2018-08-18T17:52:51.558Z,1.67
2018-08-18T17:55:19.803Z,2.00
2018-08-18T17:57:48.042Z,1.60
2018-08-18T18:00:17.505Z,1.57
2018-08-18T18:02:51.602Z,1.70
2018-08-18T18:05:22.235Z,1.40
2018-08-18T18:07:54.015Z,1.73
2018-08-18T18:10:23.640Z,1.60
2018-08-18T18:12:51.939Z,1.83
2018-08-18T18:15:41.727Z,1.50
2018-08-18T18:18:12.128Z,1.90
2018-08-18T18:20:40.646Z,1.63
2018-08-18T18:23:10.072Z,1.80
2018-08-18T18:25:38.366Z,2.00
2018-08-18T18:28:06.557Z,1.80
2018-08-18T18:30:34.757Z,1.63
2018-08-18T18:33:02.924Z,2.20
2018-08-18T18:35:31.098Z,1.70
2018-08-18T18:38:01.205Z,2.20
2018-08-18T18:40:35.442Z,2.17
2018-08-18T18:43:03.673Z,2.00
2018-08-18T18:45:31.831Z,1.90
2018-08-18T18:48:00.000Z,2.40
2018-08-18T18:50:28.203Z,2.50
2018-08-18T18:52:56.513Z,3.40
2018-08-18T18:55:24.741Z,3.03
2018-08-18T18:58:05.980Z,1.97
2018-08-18T19:00:36.316Z,2.23
2018-08-18T19:03:06.772Z,4.03
2018-08-18T19:05:34.956Z,2.33
2018-08-18T19:08:10.543Z,3.30
2018-08-18T19:10:38.701Z,2.93
2018-08-18T19:13:07.444Z,3.03
2018-08-18T19:15:35.619Z,2.57
2018-08-18T19:18:03.827Z,2.20
2018-08-18T19:20:31.975Z,2.47
2018-08-18T19:23:07.036Z,3.50
2018-08-18T19:25:36.162Z,3.10
2018-08-18T19:28:04.336Z,3.00
2018-08-18T19:30:33.394Z,2.70
2018-08-18T19:33:02.044Z,2.90
2018-08-18T19:35:34.876Z,2.77
2018-08-18T19:38:04.032Z,2.57
2018-08-18T19:40:32.376Z,2.83
2018-08-18T19:43:00.662Z,3.20
2018-08-18T19:45:28.836Z,2.80
2018-08-18T19:47:56.980Z,3.50
2018-08-18T19:50:25.169Z,4.03
2018-08-18T19:53:02.582Z,3.50
2018-08-18T19:55:30.821Z,3.27
2018-08-18T19:57:58.964Z,2.50
2018-08-18T20:00:27.120Z,3.10
2018-08-18T20:03:04.731Z,3.17
2018-08-18T20:05:32.916Z,3.63
2018-08-18T20:08:01.092Z,2.93
2018-08-18T20:10:29.267Z,3.20
2018-08-18T20:12:57.437Z,2.87
2018-08-18T20:15:25.606Z,3.90
2018-08-18T20:17:53.784Z,3.40
2018-08-18T20:20:23.403Z,3.50
2018-08-18T20:22:51.626Z,3.30
2018-08-18T20:25:19.829Z,3.57
2018-08-18T20:27:47.964Z,3.90
2018-08-18T20:30:16.423Z,4.50
2018-08-18T20:32:44.760Z,3.30
2018-08-18T20:35:13.151Z,3.80
2018-08-18T20:37:41.312Z,3.60
2018-08-18T20:40:10.229Z,3.90
2018-08-18T20:42:39.459Z,3.33
2018-08-18T20:45:08.080Z,3.17
2018-08-18T20:47:36.375Z,2.53
2018-08-18T20:50:06.335Z,3.77
2018-08-18T20:52:34.493Z,3.80
2018-08-18T20:55:02.672Z,3.67
2018-08-18T20:57:30.940Z,4.77
2018-08-18T20:59:59.155Z,5.70
2018-08-18T21:02:27.267Z,3.77
2018-08-18T21:04:59.413Z,4.40
2018-08-18T21:07:28.643Z,4.70
2018-08-18T21:09:56.800Z,3.90
2018-08-18T21:12:30.332Z,4.20
2018-08-18T21:14:58.504Z,5.10
2018-08-18T21:17:26.995Z,4.03
2018-08-18T21:19:55.153Z,4.20
2018-08-18T21:22:27.754Z,4.50
2018-08-18T21:24:56.043Z,4.70
2018-08-18T21:27:24.224Z,4.97
2018-08-18T21:29:53.214Z,5.67
2018-08-18T21:32:22.303Z,4.90
2018-08-18T21:34:51.651Z,4.80
2018-08-18T21:37:20.093Z,4.10
2018-08-18T21:39:48.473Z,4.70
2018-08-18T21:42:16.628Z,4.70
2018-08-18T21:44:44.781Z,5.50
2018-08-18T21:47:12.957Z,5.20
2018-08-18T21:49:43.660Z,4.73
2018-08-18T21:52:12.335Z,4.77
2018-08-18T21:54:40.600Z,5.70
2018-08-18T21:57:08.741Z,5.50
2018-08-18T21:59:50.878Z,5.30
2018-08-18T22:02:30.260Z,4.63
2018-08-18T22:04:58.505Z,5.63
2018-08-18T22:07:27.354Z,5.43
2018-08-18T22:09:55.619Z,5.50
2018-08-18T22:12:23.785Z,6.77
2018-08-18T22:14:51.936Z,5.77
2018-08-18T22:17:20.116Z,5.87
2018-08-18T22:19:48.286Z,6.10
2018-08-18T22:22:20.171Z,4.90
2018-08-18T22:24:48.389Z,7.10
2018-08-18T22:27:17.897Z,5.90
2018-08-18T22:29:46.319Z,5.50
2018-08-18T22:32:18.688Z,6.47
2018-08-18T22:34:46.896Z,5.73
2018-08-18T22:37:15.041Z,5.27
2018-08-18T22:39:43.319Z,5.40
2018-08-18T22:42:11.721Z,5.10
2018-08-18T22:44:40.033Z,6.23
2018-08-18T22:47:08.208Z,4.83
2018-08-18T22:49:36.365Z,4.73
2018-08-18T22:52:04.859Z,6.07
2018-08-18T22:54:33.024Z,5.63
2018-08-18T22:57:03.252Z,9.20
2018-08-18T22:59:31.779Z,7.10
2018-08-18T23:02:00.052Z,6.10
2018-08-18T23:04:33.547Z,6.03
2018-08-18T23:07:02.681Z,6.23
2018-08-18T23:09:31.265Z,5.13
2018-08-18T23:12:00.666Z,6.03
2018-08-18T23:14:31.156Z,6.20
2018-08-18T23:16:59.432Z,5.37
2018-08-18T23:19:28.034Z,6.03
2018-08-18T23:21:56.195Z,5.70
2018-08-18T23:24:32.572Z,6.00
2018-08-18T23:27:01.552Z,6.30
2018-08-18T23:29:29.909Z,6.20
2018-08-18T23:31:58.540Z,6.30
2018-08-18T23:34:26.967Z,6.10
2018-08-18T23:36:55.735Z,5.97
2018-08-18T23:39:23.930Z,5.53
2018-08-18T23:42:00.821Z,5.70
2018-08-18T23:44:29.009Z,5.10
2018-08-18T23:46:57.218Z,7.33
2018-08-18T23:49:25.384Z,6.30
2018-08-18T23:51:53.576Z,6.00
2018-08-18T23:54:24.412Z,5.70
2018-08-18T23:56:52.832Z,6.10
2018-08-18T23:59:22.753Z,6.37
